Aérodrome :
LOGIN :

S'inscrire | Disclaimer

   EN    FR    IT 

 










Légende :    VFR   VFR Marginal   IFR   IFR Intensif   IFR Très Intensif
Visi : 
Plafond : 
>= 8 km
>= 3000ft
5 à 8 km
1000 à 3000 ft
1500m à 5 km
500 à 1000 ft
800 à 1500m
200 à 500 ft
< 800m
< 200 ft
Symboles :   Orages  Brouillard  Fortes neiges  Fortes précipitations  Vent > 20 kt
SIGMETs :   Divers  Orages  Givrage  Turbulence  Onde Orograph.  Cendres Volcan.






- Altitude de l'aérodrome : 37 ft
- Code IATA : HLY


EGOV - RAF Valley

DERNIER METAR :
  • 161120Z 31012KT 9999 FEW009 BKN012 17/14 Q1011 BECMG FEW012 RMK GRN BECMG BLU

METARs EXPIRÉS :
  • 161050Z 32012KT 9999 BKN008 16/13 Q1011 TEMPO FEW008 RMK GRN TEMPO BLU
  • 161020Z 33012KT 9999 BKN008 16/14 Q1010 TEMPO FEW008 RMK GRN TEMPO BLU
  • 160950Z 33011KT 9999 BKN007 BKN120 17/15 Q1010 TEMPO FEW007 RMK GRN TEMPO BLU
  • 160943Z 33013KT 9999 SCT007 BKN120 17/14 Q1010 TEMPO FEW007 RMK GRN TEMPO BLU
  • 160920Z 34015KT 9999 FEW009 BKN120 16/13 Q1010 TEMPO SCT009
  • 160850Z 34013KT 9999 FEW009 BKN090 16/13 Q1009 NOSIG RMK BLU BLU
  • 160820Z 34011KT 9999 FEW007 BKN060 16/14 Q1009 NOSIG RMK BLU BLU
  • 160750Z 34011KT 9999 FEW007 BKN058 BKN120 15/14 Q1009 TEMPO SCT007 RMK BLU TEMPO GRN
  • 160720Z 34010KT 9999 FEW007 SCT060 BKN120 16/14 Q1008 TEMPO SCT007 RMK BLU TEMPO GRN
  • 160650Z 34008KT 9999 FEW017 BKN120 15/13 Q1008 NOSIG RMK BLU BLU

TAF TAF EGOV
Valide du 16 à 12h jusqu'au 16 à 19h UTC


161047Z 1612/1619 30012KT 9999 FEW007
TEMPO 1612/1615 BKN007
TEMPO 1615/1618 SCT016



MET'MAP, la Météo Aéronautique d'un coup d'oeil ! - Copyright ORBIFLY Décembre 2007 - Disclaimer

ORBIFLY MET'MAP TEAM :

Programmation & Développement : Alexandra Zaïnal
Sur une idée originale de : Baudouin d'Aumeries
Soutien technique & logistique : Manuel Goepfert
Assistance : Marc-Olivier Méhu




SOURCES & CREDITS :

   NOAA